Terminal Aerodrome Forecast
Issued by NWS

Home | Current Version | Previous Version | Text Only | Print | Product List | Glossary On
Versions: 1 2 3 4 5 6 7 8 9 10 11 12 13 14 15 16 17 18 19 20 21 22 23 24
000
FTAK31 PAFA 040540
TAFAMC
TAF
PAMC 040540Z 0406/0506 VRB05KT P6SM VCSH BKN080 OVC100
     FM041000 VRB03KT P6SM BKN100
     FM041800 09006KT P6SM SCT100
     FM050000 16006KT P6SM BKN090 OVC110=

USA.gov is the U.S. government's official web portal to all federal, state and local government web resources and services.